Time;durP1;ratioP1;P1;durP2;ratioP2;P2;SDS_P1;SDS_P2;PMS_P1;PMS_P2;Temp;Humidity;BMP_temperature;BMP_pressure;BME280_temperature;BME280_humidity;BME280_pressure;Samples;Min_cycle;Max_cycle;Signal;HPM_P1;HPM_P2
2021/12/02 00:01:42;;;;;;;24.50;9.67;;;;;;;2.93;84.88;96134.38;5094816;28;20514;-39
2021/12/02 00:04:11;;;;;;;25.07;9.43;;;;;;;2.94;84.82;96154.34;5094839;28;20439;-40
2021/12/02 00:06:39;;;;;;;24.40;11.37;;;;;;;2.93;84.93;96148.28;5094901;28;20835;-38
2021/12/02 00:09:06;;;;;;;34.13;15.30;;;;;;;2.95;85.25;96158.59;5093725;28;20989;-39
2021/12/02 00:11:34;;;;;;;43.67;13.40;;;;;;;2.95;84.98;96158.59;5095063;28;20781;-38
2021/12/02 00:14:07;;;;;;;28.37;14.10;;;;;;;2.96;85.19;96150.50;5094588;28;20526;-38
2021/12/02 00:16:38;;;;;;;30.23;12.30;;;;;;;2.97;84.42;96151.28;5094933;28;20430;-37
2021/12/02 00:22:01;;;;;;;26.17;10.60;;;;;;;3.00;84.21;96166.63;5068321;28;20484;-38
2021/12/02 00:24:34;;;;;;;31.50;11.70;;;;;;;2.98;84.44;96176.53;5094531;28;20431;-38
2021/12/02 00:27:04;;;;;;;42.97;12.57;;;;;;;2.87;84.22;96163.00;5094301;28;20467;-38
2021/12/02 00:29:34;;;;;;;23.23;8.30;;;;;;;2.84;84.69;96163.44;5094199;28;20475;-38
2021/12/02 00:32:06;;;;;;;22.73;8.60;;;;;;;2.83;85.22;96172.28;5094221;28;20918;-38
2021/12/02 00:34:33;;;;;;;19.03;8.70;;;;;;;2.85;85.63;96166.84;5094569;28;20450;-38
2021/12/02 00:37:03;;;;;;;20.97;8.77;;;;;;;2.82;85.40;96165.44;5094448;28;20451;-38
2021/12/02 00:39:32;;;;;;;20.53;6.93;;;;;;;2.73;85.68;96155.34;5094432;28;20808;-38
2021/12/02 00:42:00;;;;;;;10.70;6.07;;;;;;;2.75;85.74;96167.25;5094089;28;20821;-38
2021/12/02 00:44:31;;;;;;;11.30;6.27;;;;;;;2.69;85.92;96160.22;5094335;28;20443;-38
2021/12/02 00:47:00;;;;;;;15.67;7.27;;;;;;;2.69;85.63;96152.34;5093926;28;20443;-39
2021/12/02 00:49:27;;;;;;;22.20;9.90;;;;;;;2.66;86.02;96140.44;5093906;28;20439;-39
2021/12/02 00:52:00;;;;;;;30.70;11.60;;;;;;;2.46;86.17;96124.72;5094192;28;20447;-38
2021/12/02 00:54:31;;;;;;;30.60;11.50;;;;;;;2.64;86.49;96152.13;5094159;28;20442;-38
2021/12/02 00:57:02;;;;;;;86.20;22.40;;;;;;;2.64;86.51;96141.66;5093898;28;20903;-38
2021/12/02 00:59:30;;;;;;;36.97;12.97;;;;;;;2.63;86.49;96132.19;5093802;28;20446;-38
2021/12/02 01:01:58;;;;;;;31.37;14.80;;;;;;;2.61;86.41;96131.56;5093804;28;20931;-38
2021/12/02 01:04:26;;;;;;;61.07;19.73;;;;;;;2.65;86.17;96130.16;5093715;28;20443;-38
2021/12/02 01:06:54;;;;;;;60.60;20.50;;;;;;;2.64;86.27;96123.28;5093874;28;20501;-38
2021/12/02 01:09:21;;;;;;;38.00;13.47;;;;;;;2.50;86.19;96095.50;5093683;28;20439;-38
2021/12/02 01:11:53;;;;;;;33.90;10.30;;;;;;;2.59;86.38;96123.91;5093560;28;20533;-38
2021/12/02 01:14:21;;;;;;;18.57;8.60;;;;;;;2.46;86.39;96103.75;5093730;28;20463;-38
2021/12/02 01:16:49;;;;;;;23.90;11.00;;;;;;;2.55;86.88;96114.03;5093556;28;20443;-38
2021/12/02 01:19:16;;;;;;;54.10;17.00;;;;;;;2.56;86.63;96123.50;5093535;28;20453;-38
2021/12/02 01:21:44;;;;;;;33.43;10.33;;;;;;;2.56;86.58;96116.47;5093204;28;20529;-39
2021/12/02 01:24:20;;;;;;;32.13;9.57;;;;;;;2.55;86.87;96121.91;5093435;28;20452;-38
2021/12/02 01:26:54;;;;;;;34.63;11.67;;;;;;;2.53;86.73;96123.91;5093882;28;20458;-38
2021/12/02 01:29:23;;;;;;;25.93;9.53;;;;;;;2.42;86.91;96097.28;5093307;28;20478;-38
2021/12/02 01:31:52;;;;;;;28.67;11.20;;;;;;;2.43;86.85;96098.94;5093714;28;20500;-38
2021/12/02 01:34:24;;;;;;;45.93;12.40;;;;;;;2.54;86.92;96128.13;5094264;28;20447;-38
2021/12/02 01:36:53;;;;;;;53.80;17.07;;;;;;;2.42;86.69;96113.00;5093733;28;20435;-38
2021/12/02 01:39:23;;;;;;;33.17;14.67;;;;;;;2.43;86.49;96122.50;5093538;28;20855;-38
2021/12/02 01:41:53;;;;;;;32.73;12.10;;;;;;;2.51;86.44;96133.78;5093386;28;20585;-38
2021/12/02 01:44:22;;;;;;;20.20;9.43;;;;;;;2.48;86.49;96127.13;5093257;28;20424;-38
2021/12/02 01:46:51;;;;;;;20.10;7.13;;;;;;;2.54;86.35;96125.50;5093234;28;20436;-38
2021/12/02 01:49:22;;;;;;;17.00;8.00;;;;;;;2.62;85.80;96127.94;5093079;28;20500;-38
2021/12/02 01:51:51;;;;;;;16.33;4.93;;;;;;;2.62;85.48;96133.16;5093541;28;20438;-38
2021/12/02 01:54:21;;;;;;;4.00;1.57;;;;;;;2.61;87.80;96134.19;5093413;28;20470;-38
2021/12/02 01:56:52;;;;;;;6.40;2.17;;;;;;;2.53;87.63;96137.00;5094282;28;20443;-38
2021/12/02 01:59:23;;;;;;;13.60;8.23;;;;;;;2.36;87.91;96113.00;5093500;28;20775;-38
2021/12/02 02:01:53;;;;;;;9.33;3.10;;;;;;;2.44;87.40;96126.72;5093144;28;20442;-39
2021/12/02 02:04:21;;;;;;;12.90;4.93;;;;;;;2.38;87.68;96127.53;5093193;28;20533;-38
2021/12/02 02:06:57;;;;;;;5.30;4.80;;;;;;;2.38;87.58;96142.44;5093096;28;20873;-38
2021/12/02 02:09:25;;;;;;;8.47;5.57;;;;;;;2.38;87.77;96142.44;5092990;28;20985;-39
2021/12/02 02:11:53;;;;;;;5.07;3.60;;;;;;;2.33;87.43;96134.38;5093011;28;20443;-38
2021/12/02 02:14:24;;;;;;;13.47;4.80;;;;;;;2.31;87.52;96142.44;5093297;28;20806;-38
2021/12/02 02:16:52;;;;;;;6.00;4.00;;;;;;;2.30;87.74;96146.06;5093264;28;20442;-39
2021/12/02 02:19:19;;;;;;;13.80;5.07;;;;;;;2.30;87.73;96153.91;5092975;28;20449;-38
2021/12/02 02:21:48;;;;;;;6.90;4.60;;;;;;;2.24;88.42;96152.13;5092922;28;20435;-38
2021/12/02 02:24:17;;;;;;;9.30;5.10;;;;;;;2.21;88.65;96142.00;5093008;28;20454;-38
2021/12/02 02:26:46;;;;;;;7.77;4.93;;;;;;;2.20;88.55;96135.19;5092969;28;20533;-38
2021/12/02 02:29:15;;;;;;;8.83;4.10;;;;;;;2.19;88.79;96139.59;5092757;28;20563;-38
2021/12/02 02:31:44;;;;;;;20.50;8.53;;;;;;;2.21;88.35;96142.00;5092943;28;20449;-38
2021/12/02 02:34:11;;;;;;;18.70;8.60;;;;;;;2.20;88.42;96141.22;5096280;28;20442;-38
2021/12/02 02:36:49;;;;;;;20.93;6.83;;;;;;;2.21;88.26;96134.97;5096819;28;20451;-38
2021/12/02 02:39:19;;;;;;;27.30;9.30;;;;;;;2.11;88.41;96118.03;5096782;28;20502;-38
2021/12/02 02:41:52;;;;;;;55.47;22.23;;;;;;;2.16;88.55;96126.09;5096773;28;20442;-38
2021/12/02 02:44:19;;;;;;;30.93;16.40;;;;;;;2.16;88.64;96129.53;5097300;28;20435;-39
2021/12/02 02:46:47;;;;;;;26.30;11.60;;;;;;;2.13;88.68;96122.06;5096388;28;20447;-38
2021/12/02 02:49:15;;;;;;;17.60;8.40;;;;;;;2.13;88.54;96118.63;5096509;28;20493;-38
2021/12/02 02:51:44;;;;;;;12.53;7.73;;;;;;;2.08;88.40;96127.09;5096283;28;20926;-38
2021/12/02 02:54:14;;;;;;;11.60;6.00;;;;;;;2.10;88.45;96121.66;5096160;28;20443;-38
2021/12/02 02:56:48;;;;;;;9.80;6.70;;;;;;;2.11;88.34;96131.13;5096386;28;20812;-38
2021/12/02 02:59:24;;;;;;;13.93;6.43;;;;;;;2.10;88.28;96135.56;5096108;28;20434;-38
2021/12/02 03:02:02;;;;;;;15.33;7.73;;;;;;;2.11;88.44;96136.34;5096393;28;20457;-38
2021/12/02 03:04:35;;;;;;;13.20;6.93;;;;;;;2.09;88.32;96133.94;5095995;28;20514;-39
2021/12/02 03:07:07;;;;;;;15.47;7.97;;;;;;;2.03;88.56;96130.31;5095904;28;20923;-38
2021/12/02 03:09:48;;;;;;;18.43;7.60;;;;;;;2.04;89.02;96129.31;5096067;28;20486;-38
2021/12/02 03:12:22;;;;;;;14.97;7.97;;;;;;;2.04;89.02;96131.94;5096205;28;20459;-37
2021/12/02 03:17:36;;;;;;;14.20;7.33;;;;;;;1.91;88.86;96108.31;5094909;28;20468;-38
2021/12/02 03:20:04;;;;;;;14.90;8.03;;;;;;;2.01;88.95;96132.31;5095635;28;20443;-38
2021/12/02 03:22:32;;;;;;;19.63;8.50;;;;;;;1.95;89.10;96122.63;5095551;28;20446;-38
2021/12/02 03:25:00;;;;;;;17.27;9.00;;;;;;;1.90;89.23;96138.13;5095840;28;20443;-38
2021/12/02 03:27:28;;;;;;;26.83;10.00;;;;;;;1.89;89.35;96141.75;5095514;28;20441;-38
2021/12/02 03:29:56;;;;;;;22.27;10.30;;;;;;;1.89;89.64;96154.81;5095174;28;20502;-38
2021/12/02 03:32:23;;;;;;;22.50;12.37;;;;;;;1.89;89.60;96148.78;5095753;28;20443;-38
2021/12/02 03:34:51;;;;;;;22.20;11.27;;;;;;;1.85;89.38;96137.94;5095411;28;20808;-38
2021/12/02 03:37:19;;;;;;;30.73;12.47;;;;;;;1.84;89.42;96154.63;5095658;28;20439;-38
2021/12/02 03:39:47;;;;;;;47.87;22.90;;;;;;;1.81;89.31;96147.97;5095671;28;20525;-38
2021/12/02 03:42:14;;;;;;;46.97;22.73;;;;;;;1.80;89.42;96133.25;5095219;28;20443;-38
2021/12/02 03:44:43;;;;;;;16.23;7.20;;;;;;;1.74;89.90;96120.16;5094939;28;20800;-38
2021/12/02 03:47:10;;;;;;;18.33;5.53;;;;;;;1.71;90.69;96126.59;5095340;28;20599;-38
2021/12/02 03:49:40;;;;;;;13.90;7.03;;;;;;;1.76;90.98;96144.31;5095334;28;20559;-38
2021/12/02 03:52:08;;;;;;;24.23;10.90;;;;;;;1.78;90.70;96147.56;5095035;28;20439;-38
2021/12/02 03:54:35;;;;;;;22.60;9.77;;;;;;;1.79;90.74;96149.97;5095283;28;20435;-38
2021/12/02 03:57:03;;;;;;;16.93;8.97;;;;;;;1.82;90.58;96143.53;5095195;28;20450;-38
2021/12/02 03:59:32;;;;;;;13.33;8.10;;;;;;;1.82;90.40;96133.06;5094884;28;20443;-38
2021/12/02 04:02:01;;;;;;;19.00;8.30;;;;;;;1.81;90.36;96141.94;5094916;28;20486;-38
2021/12/02 04:04:28;;;;;;;8.60;5.43;;;;;;;1.80;90.76;96135.88;5094782;28;20445;-38
2021/12/02 04:06:56;;;;;;;30.63;12.07;;;;;;;1.76;90.44;96144.31;5094754;28;20446;-39
2021/12/02 04:09:25;;;;;;;11.00;5.60;;;;;;;1.84;90.10;96141.53;5094566;28;20486;-38
2021/12/02 04:11:58;;;;;;;47.83;19.10;;;;;;;1.88;89.47;96132.28;5094594;28;20878;-39
2021/12/02 04:14:28;;;;;;;15.67;8.10;;;;;;;1.85;88.95;96106.50;5094658;28;20428;-39
2021/12/02 04:16:58;;;;;;;7.07;4.43;;;;;;;1.81;88.59;96084.34;5094548;28;20430;-39
2021/12/02 04:19:27;;;;;;;7.80;3.40;;;;;;;1.94;88.54;96105.31;5094513;28;20934;-38
2021/12/02 04:21:57;;;;;;;8.13;3.20;;;;;;;1.95;88.38;96106.13;5094447;28;20439;-38
2021/12/02 04:24:24;;;;;;;32.93;10.77;;;;;;;2.01;88.04;96095.66;5094417;28;20439;-38
2021/12/02 04:26:52;;;;;;;27.97;14.90;;;;;;;2.04;86.40;96086.59;5094734;28;20809;-39
2021/12/02 04:29:19;;;;;;;24.37;10.53;;;;;;;2.23;85.91;96104.13;5094092;28;20498;-39
2021/12/02 04:31:48;;;;;;;8.73;6.20;;;;;;;2.09;86.23;96109.56;5094293;28;20525;-39
2021/12/02 04:34:16;;;;;;;7.30;3.70;;;;;;;1.94;87.39;96100.09;5094254;28;20450;-39
2021/12/02 04:36:45;;;;;;;4.50;4.10;;;;;;;1.78;88.04;96089.97;5094250;28;20449;-38
2021/12/02 04:39:12;;;;;;;13.23;6.87;;;;;;;1.77;88.11;96104.06;5094406;28;20841;-38
2021/12/02 04:41:39;;;;;;;11.23;5.97;;;;;;;1.73;88.86;96105.47;5094131;28;20442;-38
2021/12/02 04:44:07;;;;;;;17.63;7.07;;;;;;;1.69;89.46;96101.63;5094337;28;20518;-39
2021/12/02 04:46:34;;;;;;;14.37;7.73;;;;;;;1.60;89.37;96107.03;5094077;28;20483;-38
2021/12/02 04:49:04;;;;;;;14.80;7.10;;;;;;;1.56;89.45;96105.81;5093938;28;20536;-39
2021/12/02 04:51:31;;;;;;;8.17;5.60;;;;;;;1.50;89.63;96101.34;5094185;28;20439;-39
2021/12/02 04:54:00;;;;;;;13.43;6.13;;;;;;;1.51;89.84;96099.56;5093861;28;20443;-38
2021/12/02 04:56:27;;;;;;;3.83;2.77;;;;;;;1.50;90.37;96096.13;5093539;28;20499;-39
2021/12/02 04:58:54;;;;;;;9.40;5.27;;;;;;;1.54;90.70;96089.50;5090984;28;20450;-40
2021/12/02 05:01:22;;;;;;;5.10;3.77;;;;;;;1.52;90.65;96088.09;5091982;28;20443;-40
2021/12/02 05:03:49;;;;;;;6.37;4.93;;;;;;;1.51;90.98;96084.66;5092006;28;20439;-40
2021/12/02 05:06:16;;;;;;;8.90;5.27;;;;;;;1.53;91.08;96072.19;5091675;28;20450;-40
2021/12/02 05:08:43;;;;;;;17.23;10.70;;;;;;;1.59;91.04;96089.72;5091550;28;20482;-39
2021/12/02 05:11:12;;;;;;;14.50;9.63;;;;;;;1.61;90.70;96077.25;5091201;28;20442;-40
2021/12/02 05:13:39;;;;;;;238.60;73.70;;;;;;;1.63;90.98;96080.50;5091771;28;20435;-40
2021/12/02 05:16:07;;;;;;;452.40;184.00;;;;;;;1.65;90.98;96077.66;5091548;28;20450;-39
2021/12/02 05:18:34;;;;;;;232.30;96.23;;;;;;;1.68;90.74;96074.66;5091568;28;20443;-40
2021/12/02 05:21:02;;;;;;;189.30;74.37;;;;;;;1.73;91.03;96074.84;5091818;28;20439;-40
2021/12/02 05:23:29;;;;;;;61.20;33.07;;;;;;;1.74;90.34;96075.66;5090968;28;20478;-40
2021/12/02 05:25:56;;;;;;;83.93;33.20;;;;;;;1.72;90.18;96069.81;5091670;28;20477;-40
2021/12/02 05:28:25;;;;;;;119.30;46.57;;;;;;;1.76;90.28;96071.03;5091081;28;20474;-40
2021/12/02 05:30:53;;;;;;;58.43;31.60;;;;;;;1.81;89.65;96068.66;5091360;28;20986;-40
2021/12/02 05:33:20;;;;;;;57.47;25.73;;;;;;;1.86;89.29;96063.59;5091303;28;20534;-39
2021/12/02 05:35:47;;;;;;;54.63;25.70;;;;;;;1.89;89.14;96071.06;5091679;28;20447;-38
2021/12/02 05:38:15;;;;;;;60.73;29.00;;;;;;;1.87;89.06;96062.59;5090609;28;20509;-38
2021/12/02 05:40:42;;;;;;;28.47;13.37;;;;;;;1.90;89.13;96067.44;5091531;28;20447;-39
2021/12/02 05:43:09;;;;;;;27.43;14.27;;;;;;;1.94;88.83;96057.41;5091245;28;20939;-39
2021/12/02 05:45:38;;;;;;;11.73;7.10;;;;;;;2.11;88.29;96070.88;5091212;28;20449;-39
2021/12/02 05:48:06;;;;;;;19.47;8.07;;;;;;;2.49;87.34;96055.38;5091257;28;20814;-38
2021/12/02 05:50:33;;;;;;;28.70;11.10;;;;;;;2.89;85.07;96062.38;5090717;28;20502;-39
2021/12/02 05:53:00;;;;;;;53.40;20.40;;;;;;;3.26;84.32;96059.00;5091174;28;20435;-39
2021/12/02 05:55:28;;;;;;;47.70;21.30;;;;;;;3.61;83.27;96063.91;5091382;28;20454;-42
2021/12/02 05:57:55;;;;;;;45.20;21.83;;;;;;;3.96;82.35;96055.66;5091358;28;20468;-39
2021/12/02 06:00:23;;;;;;;331.73;117.27;;;;;;;4.28;79.95;96068.72;5091403;28;20439;-39
2021/12/02 06:02:51;;;;;;;88.53;44.27;;;;;;;4.63;78.45;96057.75;5090954;28;20534;-39
2021/12/02 06:05:20;;;;;;;73.90;35.30;;;;;;;4.97;76.76;96071.38;5091081;28;20449;-39
2021/12/02 06:07:49;;;;;;;49.83;24.60;;;;;;;5.32;75.99;96069.78;5092661;28;20486;-39
2021/12/02 06:10:17;;;;;;;54.07;26.87;;;;;;;5.68;75.03;96069.97;5096746;28;20522;-38
2021/12/02 06:12:45;;;;;;;45.40;21.43;;;;;;;6.03;73.79;96077.22;5097295;28;20512;-38
2021/12/02 06:15:13;;;;;;;28.23;16.80;;;;;;;6.33;72.48;96074.53;5096939;28;20445;-38
2021/12/02 06:17:42;;;;;;;29.87;11.70;;;;;;;6.53;71.27;96068.94;5096803;28;20451;-39
2021/12/02 06:20:13;;;;;;;34.57;20.67;;;;;;;6.71;71.18;96066.22;5097143;28;21096;-38
2021/12/02 06:22:41;;;;;;;40.07;24.90;;;;;;;6.83;70.28;96058.28;5096786;28;20907;-38
2021/12/02 06:27:58;;;;;;;39.00;15.93;;;;;;;7.30;69.54;96063.50;5095592;28;20938;-39
2021/12/02 06:30:27;;;;;;;31.60;15.93;;;;;;;7.49;69.07;96071.28;5096927;28;20491;-38
2021/12/02 06:32:54;;;;;;;24.40;12.60;;;;;;;7.68;67.67;96074.53;5096546;28;20443;-38
2021/12/02 06:35:23;;;;;;;32.23;13.93;;;;;;;7.87;67.43;96083.09;5096528;28;20468;-39
2021/12/02 06:37:52;;;;;;;23.87;11.30;;;;;;;8.03;66.65;96077.03;5096836;28;20443;-38
2021/12/02 06:40:19;;;;;;;24.63;10.57;;;;;;;8.14;65.05;96070.88;5096415;28;20442;-39
2021/12/02 06:42:47;;;;;;;48.77;21.47;;;;;;;8.32;65.14;96074.34;5096473;28;20936;-38
2021/12/02 06:45:14;;;;;;;38.77;17.73;;;;;;;8.43;64.87;96062.94;5096680;28;20443;-39
2021/12/02 06:47:42;;;;;;;25.67;13.47;;;;;;;8.52;65.33;96064.16;5096278;28;20445;-39
2021/12/02 06:50:13;;;;;;;21.60;13.10;;;;;;;8.58;64.93;96065.84;5096233;28;20518;-38
2021/12/02 06:52:42;;;;;;;11.73;9.47;;;;;;;8.59;64.75;96056.84;5096244;28;20514;-38
2021/12/02 06:55:10;;;;;;;12.10;8.13;;;;;;;8.73;64.43;96064.44;5096407;28;20454;-39
2021/12/02 06:57:38;;;;;;;16.33;8.80;;;;;;;8.82;64.47;96058.53;5096092;28;20439;-38
2021/12/02 07:00:08;;;;;;;16.30;9.57;;;;;;;8.91;64.65;96039.56;5096491;28;20439;-38
2021/12/02 07:02:35;;;;;;;18.03;10.10;;;;;;;9.21;64.33;96055.06;5096079;28;20439;-38
2021/12/02 07:05:02;;;;;;;16.80;9.13;;;;;;;9.36;62.24;96052.63;5096008;28;20443;-38
2021/12/02 07:07:34;;;;;;;11.63;6.63;;;;;;;9.43;60.99;96047.91;5095990;28;20450;-38
2021/12/02 07:10:03;;;;;;;14.00;9.70;;;;;;;9.54;62.14;96042.75;5095869;28;20514;-38
2021/12/02 07:12:32;;;;;;;20.67;9.27;;;;;;;9.62;62.58;96048.41;5095904;28;20439;-40
2021/12/02 07:15:05;;;;;;;28.87;16.90;;;;;;;9.69;61.69;96047.41;5093710;28;20500;-38
2021/12/02 07:17:34;;;;;;;22.40;10.70;;;;;;;9.89;61.03;96049.47;5093731;28;20457;-39
2021/12/02 07:20:01;;;;;;;13.07;10.07;;;;;;;10.00;61.42;96052.00;5093134;28;20486;-39
2021/12/02 07:22:29;;;;;;;8.63;5.17;;;;;;;9.86;59.77;96032.22;5093554;28;21045;-39
2021/12/02 07:24:57;;;;;;;6.53;3.10;;;;;;;9.77;61.51;96053.09;5093496;28;20497;-39
2021/12/02 07:27:25;;;;;;;6.40;2.77;;;;;;;9.34;63.81;96043.31;5093014;28;20542;-38
2021/12/02 07:29:52;;;;;;;2.50;2.30;;;;;;;9.25;64.86;96050.88;5094406;28;20816;-38
2021/12/02 07:32:21;;;;;;;3.27;2.80;;;;;;;9.20;64.97;96048.16;5095430;28;20443;-37
2021/12/02 07:34:49;;;;;;;5.07;3.90;;;;;;;9.32;65.84;96054.16;5095407;28;20447;-38
2021/12/02 07:37:17;;;;;;;10.30;6.03;;;;;;;9.41;65.25;96043.91;5095608;28;20450;-37
2021/12/02 07:39:44;;;;;;;8.40;6.17;;;;;;;9.51;65.01;96051.19;5095643;28;20453;-38
2021/12/02 07:42:12;;;;;;;8.10;6.53;;;;;;;9.58;64.48;96052.59;5095527;28;20518;-38
2021/12/02 07:44:41;;;;;;;3.30;3.00;;;;;;;9.53;62.64;96057.03;5095500;28;20443;-38
2021/12/02 07:47:08;;;;;;;2.90;2.70;;;;;;;9.21;63.12;96055.06;5095134;28;20950;-38
2021/12/02 07:49:36;;;;;;;5.70;3.20;;;;;;;8.77;62.72;96036.47;5095490;28;20544;-38
2021/12/02 07:52:03;;;;;;;2.50;2.30;;;;;;;8.51;63.89;96036.06;5095333;28;20451;-40
2021/12/02 07:54:33;;;;;;;2.30;1.80;;;;;;;8.47;64.31;96031.50;5095006;28;20446;-38
2021/12/02 07:57:01;;;;;;;9.60;5.10;;;;;;;8.65;65.03;96041.03;5095796;28;20504;-38
2021/12/02 07:59:29;;;;;;;5.87;4.60;;;;;;;8.74;65.08;96034.31;5095153;28;20454;-38
2021/12/02 08:02:01;;;;;;;9.30;6.83;;;;;;;8.91;65.29;96040.38;5094908;28;20799;-38
2021/12/02 08:04:29;;;;;;;15.30;9.50;;;;;;;8.94;64.13;96031.94;5095728;28;20430;-38
2021/12/02 08:06:56;;;;;;;15.53;8.00;;;;;;;9.10;63.80;96048.03;5094813;28;20439;-38
2021/12/02 08:09:23;;;;;;;14.07;7.90;;;;;;;9.12;63.25;96030.03;5094671;28;20475;-38
2021/12/02 08:11:51;;;;;;;5.87;4.53;;;;;;;9.23;62.94;96031.78;5094715;28;20449;-38
2021/12/02 08:14:18;;;;;;;6.83;5.10;;;;;;;9.27;63.25;96032.09;5094647;28;20450;-38
2021/12/02 08:16:46;;;;;;;8.47;4.57;;;;;;;9.39;62.71;96036.22;5094854;28;20473;-38
2021/12/02 08:19:14;;;;;;;6.40;5.80;;;;;;;9.60;61.96;96025.88;5094525;28;20526;-38
2021/12/02 08:21:42;;;;;;;7.30;5.67;;;;;;;9.83;62.57;96038.84;5094408;28;20447;-38
2021/12/02 08:24:09;;;;;;;7.77;5.33;;;;;;;10.00;61.95;96019.34;5094513;28;20447;-38
2021/12/02 08:26:36;;;;;;;6.13;4.77;;;;;;;10.21;62.63;96031.75;5094861;28;20447;-38
2021/12/02 08:29:05;;;;;;;3.87;3.33;;;;;;;10.39;61.88;96038.59;5094156;28;20467;-38
2021/12/02 08:31:32;;;;;;;6.47;5.80;;;;;;;10.49;60.65;96021.91;5093380;28;20527;-38
2021/12/02 08:34:00;;;;;;;6.30;5.57;;;;;;;10.69;60.41;96034.56;5094310;28;20446;-38
2021/12/02 08:36:41;;;;;;;7.87;6.90;;;;;;;10.84;60.02;96015.25;5094266;28;20450;-38
2021/12/02 08:39:11;;;;;;;11.93;6.70;;;;;;;10.97;56.97;96021.97;5095030;28;20431;-38
2021/12/02 08:41:43;;;;;;;2.40;1.90;;;;;;;11.03;56.40;96026.25;5095564;28;20529;-38
2021/12/02 08:44:12;;;;;;;2.07;1.87;;;;;;;11.09;57.12;96024.44;5094195;28;20914;-40
2021/12/02 08:46:39;;;;;;;1.87;1.77;;;;;;;11.19;56.43;96011.19;5092383;28;20966;-39
2021/12/02 08:49:06;;;;;;;2.30;1.80;;;;;;;11.40;55.98;96031.50;5092217;28;20550;-39
2021/12/02 08:51:35;;;;;;;5.70;2.57;;;;;;;11.41;57.27;96027.75;5091842;28;20854;-39
2021/12/02 08:54:02;;;;;;;2.33;1.83;;;;;;;11.31;56.73;96018.94;5091902;28;20803;-39
2021/12/02 08:56:30;;;;;;;2.80;1.90;;;;;;;11.26;57.41;96017.06;5092105;28;20443;-38
2021/12/02 08:58:58;;;;;;;3.13;2.33;;;;;;;11.18;58.13;96013.03;5094187;28;20438;-38
2021/12/02 09:01:27;;;;;;;4.13;2.33;;;;;;;11.14;58.83;96016.47;5094132;28;20901;-38
2021/12/02 09:03:55;;;;;;;2.30;2.10;;;;;;;11.19;60.17;96008.53;5094177;28;20589;-38
2021/12/02 09:06:22;;;;;;;1.83;1.60;;;;;;;11.11;60.06;95990.44;5093789;28;20446;-38
2021/12/02 09:08:54;;;;;;;2.57;2.37;;;;;;;11.06;61.15;95994.66;5094080;28;20442;-38
2021/12/02 09:11:22;;;;;;;3.73;2.27;;;;;;;11.15;62.06;96002.16;5094073;28;20556;-38
2021/12/02 09:13:51;;;;;;;3.37;2.30;;;;;;;11.15;58.20;96002.16;5093375;28;20439;-38
2021/12/02 09:16:18;;;;;;;2.20;1.97;;;;;;;11.09;58.59;96003.19;5093678;28;20483;-38
2021/12/02 09:18:46;;;;;;;9.23;1.80;;;;;;;11.18;59.37;96006.94;5093553;28;21007;-38
2021/12/02 09:21:13;;;;;;;17.73;4.33;;;;;;;11.21;61.47;95993.16;5093890;28;20861;-38
2021/12/02 09:23:40;;;;;;;4.20;2.30;;;;;;;11.27;62.10;95981.47;5093806;28;20447;-38
2021/12/02 09:26:09;;;;;;;5.20;3.83;;;;;;;11.36;63.59;95985.22;5093554;28;20439;-38
2021/12/02 09:28:36;;;;;;;4.00;3.33;;;;;;;11.40;65.37;95985.50;5093260;28;20471;-38
2021/12/02 09:31:04;;;;;;;5.63;2.70;;;;;;;11.39;64.72;95984.69;5093323;28;20982;-38
2021/12/02 09:33:31;;;;;;;4.77;2.30;;;;;;;11.45;64.28;95983.66;5093417;28;20523;-38
2021/12/02 09:35:58;;;;;;;4.40;2.67;;;;;;;11.46;61.98;95969.31;5093636;28;20465;-38
2021/12/02 09:38:26;;;;;;;4.30;2.93;;;;;;;11.63;62.49;95977.06;5093295;28;20441;-38
2021/12/02 09:40:53;;;;;;;4.70;2.73;;;;;;;11.66;65.72;95971.22;5093655;28;20477;-38
2021/12/02 09:43:21;;;;;;;4.07;3.10;;;;;;;11.66;66.79;95970.44;5097497;28;20438;-38
2021/12/02 09:45:49;;;;;;;4.43;3.80;;;;;;;11.60;65.97;95960.84;5098366;28;20949;-38
2021/12/02 09:48:16;;;;;;;4.93;3.37;;;;;;;11.61;67.00;95963.22;5097456;28;20442;-38
2021/12/02 09:50:55;;;;;;;4.43;3.67;;;;;;;11.47;67.08;95962.94;5097621;28;20518;-38
2021/12/02 09:53:25;;;;;;;4.70;3.60;;;;;;;11.45;67.34;95958.94;5098274;28;20431;-38
2021/12/02 09:56:06;;;;;;;4.13;3.13;;;;;;;11.44;67.41;95934.22;5097728;28;20492;-38
2021/12/02 09:58:36;;;;;;;4.97;3.17;;;;;;;11.60;68.18;95939.56;5097628;28;20454;-38
2021/12/02 10:01:07;;;;;;;8.27;3.17;;;;;;;11.68;67.30;95921.25;5097287;28;20435;-38
2021/12/02 10:03:36;;;;;;;10.00;4.73;;;;;;;11.83;66.64;95928.44;5097466;28;20431;-38
2021/12/02 10:06:07;;;;;;;16.33;9.73;;;;;;;11.98;66.09;95921.53;5097191;28;20929;-37
2021/12/02 10:08:42;;;;;;;7.93;4.53;;;;;;;11.99;66.27;95915.16;5097106;28;20427;-38
2021/12/02 10:11:12;;;;;;;5.70;5.17;;;;;;;12.12;64.82;95925.28;5097853;28;20477;-38
2021/12/02 10:13:46;;;;;;;3.50;3.20;;;;;;;12.11;64.53;95920.22;5098103;28;20439;-38
2021/12/02 10:16:22;;;;;;;5.57;2.77;;;;;;;11.96;64.25;95921.81;5097853;28;20434;-37
2021/12/02 10:19:05;;;;;;;3.97;3.57;;;;;;;11.95;65.32;95924.75;5096921;28;20461;-37
2021/12/02 10:21:38;;;;;;;6.13;3.40;;;;;;;11.81;64.01;95911.16;5097173;28;20431;-38
2021/12/02 10:24:08;;;;;;;10.43;5.33;;;;;;;11.76;66.11;95921.78;5097108;28;20792;-38
2021/12/02 10:26:42;;;;;;;3.00;2.70;;;;;;;11.71;64.27;95924.44;5096675;28;20445;-38
2021/12/02 10:29:14;;;;;;;3.57;2.97;;;;;;;11.51;64.48;95911.88;5096632;28;20474;-38
2021/12/02 10:31:46;;;;;;;3.57;2.63;;;;;;;11.54;66.80;95908.72;5096620;28;20478;-38
2021/12/02 10:34:15;;;;;;;8.10;2.43;;;;;;;11.57;67.06;95908.19;5096615;28;20431;-38
2021/12/02 10:36:45;;;;;;;4.27;3.10;;;;;;;11.56;67.06;95902.06;5096838;28;20443;-38
2021/12/02 10:39:16;;;;;;;5.77;3.93;;;;;;;11.61;67.45;95891.44;5097025;28;20466;-38
2021/12/02 10:41:45;;;;;;;2.37;2.20;;;;;;;11.67;67.21;95898.34;5096812;28;20512;-38
2021/12/02 10:44:17;;;;;;;4.97;4.30;;;;;;;11.74;69.08;95903.41;5096724;28;20815;-38
2021/12/02 10:47:03;;;;;;;3.50;3.20;;;;;;;11.64;68.75;95900.78;5096707;28;20427;-38
2021/12/02 10:49:33;;;;;;;4.63;4.00;;;;;;;11.64;68.75;95900.78;5097155;28;20435;-38
2021/12/02 10:52:03;;;;;;;5.37;3.30;;;;;;;11.67;68.42;95897.56;5096464;28;20490;-38
2021/12/02 10:54:33;;;;;;;4.10;3.63;;;;;;;11.73;68.44;95891.19;5095371;28;20922;-38
2021/12/02 10:57:08;;;;;;;5.20;3.20;;;;;;;11.81;68.67;95877.38;5096153;28;20537;-38
2021/12/02 10:59:44;;;;;;;3.90;3.23;;;;;;;11.88;69.42;95880.59;5096658;28;20431;-38
2021/12/02 11:02:23;;;;;;;4.67;3.63;;;;;;;11.96;71.19;95876.59;5096156;28;20521;-38
2021/12/02 11:04:53;;;;;;;6.60;3.20;;;;;;;12.02;71.18;95880.03;5096943;28;20470;-37
2021/12/02 11:07:24;;;;;;;3.67;3.33;;;;;;;12.08;69.42;95871.00;5096405;28;20441;-38
2021/12/02 11:09:55;;;;;;;6.50;4.10;;;;;;;12.13;70.11;95868.34;5096086;28;20431;-38
2021/12/02 11:12:26;;;;;;;7.93;3.23;;;;;;;12.19;69.69;95871.78;5095964;28;20482;-37
2021/12/02 11:14:58;;;;;;;4.60;2.73;;;;;;;12.23;68.58;95873.63;5096153;28;20442;-38
2021/12/02 11:17:29;;;;;;;6.47;2.50;;;;;;;12.23;66.66;95860.31;5095069;28;20435;-39
2021/12/02 11:19:58;;;;;;;3.40;3.10;;;;;;;12.27;66.27;95861.38;5093594;28;20907;-39
2021/12/02 11:22:28;;;;;;;4.60;2.80;;;;;;;12.35;64.98;95861.91;5093873;28;20451;-38
2021/12/02 11:24:55;;;;;;;5.17;2.93;;;;;;;12.34;64.37;95855.00;5093559;28;20981;-38
2021/12/02 11:27:25;;;;;;;5.47;2.70;;;;;;;12.39;64.26;95854.97;5093848;28;20454;-39
2021/12/02 11:29:57;;;;;;;4.00;2.90;;;;;;;12.26;63.90;95846.50;5093247;28;20509;-39
2021/12/02 11:32:42;;;;;;;3.23;2.90;;;;;;;12.46;62.04;95853.63;5093241;28;20474;-39
2021/12/02 11:35:17;;;;;;;3.90;2.47;;;;;;;12.52;62.82;95854.41;5093427;28;20915;-39
2021/12/02 11:37:47;;;;;;;2.83;2.27;;;;;;;12.58;61.07;95839.22;5093350;28;20903;-39
2021/12/02 11:40:17;;;;;;;2.73;2.50;;;;;;;12.60;60.82;95840.53;5093689;28;20450;-38
2021/12/02 11:42:45;;;;;;;6.47;2.60;;;;;;;12.59;60.88;95844.28;5095600;28;20927;-38
2021/12/02 11:45:16;;;;;;;6.43;2.07;;;;;;;12.64;60.60;95854.88;5095527;28;20518;-37
2021/12/02 11:47:43;;;;;;;1.93;1.70;;;;;;;12.62;59.79;95837.59;5095211;28;20906;-37
2021/12/02 11:50:12;;;;;;;1.93;1.80;;;;;;;12.75;58.84;95852.97;5095445;28;20542;-38